Posadas, Argentina

10:13 PM ART on March 02, 2015 (GMT -0300)
Aguavista Club de Campo | Change Station
CLOSE
Current Station
Personal Weather Station
Location: San Juan Del Paraná, ITAPúA
Elevation: 436 ft
Nearby Weather Stations

Elev 436 ft 27.31 °S, 55.98 °W | Updated 16 minutes ago

Clear
Clear
79.5 °F
Feels Like 84 °F
N
2.9
Wind Variable Wind from WNW
Gusts 6.0 mph

Today
High -- | Low -- °F
--% Chance of Precip.
Yesterday
High -- | Low -- °F
Precip. -- in
6:37 AM 7:14 PM
Waxing Gibbous, 94% visible
Pressure 29.86 in
Visibility -9999.0 miles
Clouds
Heat Index 84 °F
Dew Point 75 °F
Humidity 85%
Rainfall 2.54 in
Snow Depth Not available.
UV 0.0 out of 12
Pollen Not available.
Air Quality Not available.
Flu Activity Not available.
METAR SARP 030100Z 11005KT CAVOK 26/24 Q1011

More Conditions Fewer Conditions

Pressure 29.86 in
Visibility -9999.0 miles
Clouds
Heat Index 84 °F
Dew Point 75 °F
Humidity 85%
Rainfall 2.54 in
Snow Depth Not available.
UV 0.0 out of 12
Pollen Not available.
Air Quality Not available.
Flu Activity Not available.
METAR SARP 030100Z 11005KT CAVOK 26/24 Q1011

More Conditions Fewer Conditions

10-Day Weather Forecast

Almanac

Astronomy

Mar. 02, 2015 Rise Set
Actual Time
Civil Twilight
Nautical Twilight
Astronomical Twilight
Moon
Length of Visible Light
Length of Day
Tomorrow will be .
, % of the Moon is Illuminated

Today's Extremes

Country Highs Country Lows

Community

WunderPhotos

Upload Photos

1,802,016 photos uploaded!

WunderBlogs® & News

Nearby

Air Quality

  Air Quality AQ Index Pollutant
Not available.

Snow Depth

Station Depth Elevation

Earthquake Activity

City Distance Mag. Time & Date
Minimum magnitude displayed is 2.5.

Coastal Water Temperatures

Place Temperature

Nearby Weather Stations